Bookmark and Share
Track history (hours):
 

Ocean Beaut

More information available from US FCC via Universal Licensing System.

Last reported at 2014-Apr-17 21:33 UTC. Time now 2014-Apr-17 21:56 UTC.
Position N 46°12' W 123°48'.

Length 20 m.

Type: Fishing. MMSI: 367187080.

NotesDate/timePositionNaut miles runAvg speedWind from/ knotsBaromVisibWave heightAir tempDewpointWater temp
2014-Apr-17 21:33N 46°12' W 123°48'0 0.0
2014-Apr-17 20:33N 46°12' W 123°48'0 0.0
2014-Apr-17 19:33N 46°12' W 123°48'0 0.0
2014-Apr-17 18:33N 46°12' W 123°48'0 0.0
2014-Apr-17 17:33N 46°12' W 123°48'0 0.0
2014-Apr-17 16:33N 46°12' W 123°48'0 0.0
2014-Apr-17 15:33N 46°12' W 123°48'0 0.0
2014-Apr-17 14:33N 46°12' W 123°48'0 0.0
2014-Apr-17 13:33N 46°12' W 123°48'0 0.0
2014-Apr-17 12:33N 46°12' W 123°48'0 0.0
2014-Apr-17 11:33N 46°12' W 123°48'0 0.0
2014-Apr-17 10:33N 46°12' W 123°48'0 0.0
2014-Apr-17 09:33N 46°12' W 123°48'0 0.0
2014-Apr-17 08:33N 46°12' W 123°48'0 0.0
2014-Apr-17 07:33N 46°12' W 123°48'0 0.0
2014-Apr-17 06:33N 46°12' W 123°48'0 0.0
2014-Apr-17 05:33N 46°12' W 123°48'0 0.0
2014-Apr-17 04:33N 46°12' W 123°48'0 0.0
2014-Apr-17 03:33N 46°12' W 123°48'0 0.0
2014-Apr-17 02:33N 46°12' W 123°48'0 0.0
2014-Apr-17 01:33N 46°12' W 123°48'0 0.0
2014-Apr-17 00:33N 46°12' W 123°48'0 0.0
2014-Apr-16 23:33N 46°12' W 123°48'0 0.0
2014-Apr-16 22:33N 46°12' W 123°48'0 0.0
2014-Apr-16 21:33N 46°12' W 123°48'0 0.0
2014-Apr-16 20:33N 46°12' W 123°48'0 0.2
2014-Apr-16 19:33N 46°12' W 123°48'3 2.6
2014-Apr-16 18:33N 46°11' W 123°51'0 0.0
2014-Apr-16 17:33N 46°11' W 123°51'0 0.0
2014-Apr-16 16:30N 46°11' W 123°51'0 0.0
2014-Apr-16 15:33N 46°11' W 123°51'0 0.0
2014-Apr-16 14:33N 46°11' W 123°51'0 0.0
2014-Apr-16 13:33N 46°11' W 123°51'0 0.0
2014-Apr-16 12:33N 46°11' W 123°51'0 0.0
2014-Apr-16 11:33N 46°11' W 123°51'0 0.0
2014-Apr-16 10:33N 46°11' W 123°51'0 0.0
2014-Apr-16 09:33N 46°11' W 123°51'0 0.0
2014-Apr-16 08:33N 46°11' W 123°51'0 0.0
2014-Apr-16 07:33N 46°11' W 123°51'0 0.0
2014-Apr-16 06:33N 46°11' W 123°51'0 0.0
2014-Apr-16 05:33N 46°11' W 123°51'0 0.0
2014-Apr-16 04:33N 46°11' W 123°51'0 0.0
2014-Apr-16 03:33N 46°11' W 123°51'0 0.0
2014-Apr-16 02:33N 46°11' W 123°51'0 0.0
2014-Apr-16 01:33N 46°11' W 123°51'0 0.0
2014-Apr-16 00:33N 46°11' W 123°51'0 0.0
2014-Apr-15 23:33N 46°11' W 123°51'0 0.0
2014-Apr-15 22:33N 46°11' W 123°51'0 0.4
2014-Apr-15 21:30N 46°11' W 123°52'7 6.9
2014-Apr-15 20:33N 46°15' W 124°00'7 7.4
2014-Apr-15 19:33N 46°13' W 124°11'7 6.7
2014-Apr-15 18:34N 46°14' W 124°20'7 6.7
2014-Apr-15 17:33N 46°14' W 124°30'4 4.5
2014-Apr-15 16:33N 46°15' W 124°36'1 1.4
2014-Apr-15 15:33N 46°16' W 124°38'2 2.2
2014-Apr-15 14:32N 46°18' W 124°40'0 0.2
2014-Apr-15 12:34N 46°18' W 124°39'0 0.2
2014-Apr-15 11:33N 46°18' W 124°39'1 0.9
2014-Apr-15 10:32N 46°19' W 124°40'1 0.5
2014-Apr-15 09:34N 46°19' W 124°39'2 1.7
2014-Apr-15 08:34N 46°17' W 124°39'2 1.9
2014-Apr-15 07:33N 46°16' W 124°37'4 3.6
2014-Apr-15 06:33N 46°12' W 124°39'6 5.7
2014-Apr-15 05:34N 46°08' W 124°44'6 2.8
2014-Apr-15 03:34N 46°04' W 124°50'8 3.8
2014-Apr-15 01:34N 46°11' W 124°45'4 4.2
2014-Apr-15 00:33N 46°15' W 124°42'4 4.1
2014-Apr-14 23:30N 46°18' W 124°39'1 1.1
2014-Apr-14 22:33N 46°17' W 124°39'2 1.8
2014-Apr-14 21:33N 46°16' W 124°37'0 0.2
2014-Apr-14 20:33N 46°16' W 124°38'2 1.6
2014-Apr-14 19:33N 46°17' W 124°39'2 1.9
2014-Apr-14 18:33N 46°19' W 124°41'3 1.4
2014-Apr-14 16:34N 46°17' W 124°45'3 2.5
2014-Apr-14 15:33N 46°15' W 124°46'6 5.6
2014-Apr-14 14:34N 46°10' W 124°42'2 2.4
2014-Apr-14 13:33N 46°08' W 124°43'  
2014-Apr-12 02:31N 46°12' W 123°48'0 0.0
2014-Apr-12 01:25N 46°12' W 123°48'0 0.0
2014-Apr-12 00:31N 46°12' W 123°48'0 0.0
2014-Apr-11 23:25N 46°12' W 123°48'0 0.0
2014-Apr-11 22:19N 46°12' W 123°48'0 0.0
2014-Apr-11 21:31N 46°12' W 123°48'0 0.0
2014-Apr-11 20:31N 46°12' W 123°48'2 0.0
2014-Apr-10 03:28N 46°12' W 123°46'0 0.0
2014-Apr-10 02:04N 46°12' W 123°46'0 0.0
2014-Apr-10 01:28N 46°12' W 123°46'0 0.0
2014-Apr-10 00:25N 46°12' W 123°46'0 0.0
2014-Apr-09 23:31N 46°12' W 123°46'0 0.0
2014-Apr-09 22:31N 46°12' W 123°46'0 0.0
2014-Apr-09 21:31N 46°12' W 123°46'0 0.0
2014-Apr-09 20:29N 46°12' W 123°46'0 0.0
2014-Apr-09 19:28N 46°12' W 123°46'0 0.0
2014-Apr-09 18:23N 46°12' W 123°46'0 0.0
2014-Apr-09 17:29N 46°12' W 123°46'0 0.0
2014-Apr-09 16:29N 46°12' W 123°46'0 0.0
2014-Apr-09 15:24N 46°12' W 123°46'2 1.8
2014-Apr-09 14:29N 46°12' W 123°48'0 0.0
2014-Apr-09 13:29N 46°12' W 123°48'0 0.0
2014-Apr-09 11:17N 46°12' W 123°48'0 0.0
2014-Apr-09 10:26N 46°12' W 123°48'0 0.0
2014-Apr-08 18:23N 46°12' W 123°48'2 0.7
2014-Apr-08 15:33N 46°13' W 123°46'1 0.7
2014-Apr-08 14:33N 46°12' W 123°45'2 1.7
2014-Apr-08 13:26N 46°12' W 123°48'0 0.0
2014-Apr-08 12:32N 46°12' W 123°48'  

Dump ship's entire track history

sailing weather and tide predictions

Ocean Beaut — WDD7485 — position and weather